Orneville Township, Maine
Current Conditions -  °F | °C
As of 8:53 PM on Monday 24 Nov 2014 (Local Time) from KMLT Reporting Station
Overcast Overcast  
Wind Chill: 58°   Ceiling: 1200
Heat Index: 58°   Visibility: 10mi
Dew Point: 57°   Wind: 6mph
Humidity: 97%   Direction: 170°S
Pressure: 29.49"   Gusts: NA
Location:  45.4158°N, 68.8178°W
Report Text: KMLT 250153Z AUTO 17005KT 10SM BKN012 OVC021 14/14 A2949 RMK AO2 SLP992 T01440139
Loading
Personal Weather Stations






























Interactive Weather Map New forecast layout! Learn more

10-Day Weather Forecast

Advertisements
Track Severe Weather on mobile